sensor_id;sensor_type;location;lat;lon;timestamp;P1;durP1;ratioP1;P2;durP2;ratioP2
21705;SDS011;11014;53.076;18.208;2023-11-22T00:00:03;20.95;;;9.13;;
21705;SDS011;11014;53.076;18.208;2023-11-22T00:02:55;14.73;;;7.82;;
21705;SDS011;11014;53.076;18.208;2023-11-22T00:05:24;16.50;;;8.00;;
21705;SDS011;11014;53.076;18.208;2023-11-22T00:07:53;16.08;;;7.90;;
21705;SDS011;11014;53.076;18.208;2023-11-22T00:10:22;13.88;;;7.40;;
21705;SDS011;11014;53.076;18.208;2023-11-22T00:12:51;14.48;;;8.02;;
21705;SDS011;11014;53.076;18.208;2023-11-22T00:15:20;15.45;;;8.25;;
21705;SDS011;11014;53.076;18.208;2023-11-22T00:17:49;15.45;;;8.35;;
21705;SDS011;11014;53.076;18.208;2023-11-22T00:20:17;16.60;;;8.02;;
21705;SDS011;11014;53.076;18.208;2023-11-22T00:22:46;15.32;;;7.50;;
21705;SDS011;11014;53.076;18.208;2023-11-22T00:25:15;15.82;;;7.55;;
21705;SDS011;11014;53.076;18.208;2023-11-22T00:27:44;13.75;;;7.55;;
21705;SDS011;11014;53.076;18.208;2023-11-22T00:30:13;18.48;;;8.43;;
21705;SDS011;11014;53.076;18.208;2023-11-22T00:32:43;17.35;;;8.10;;
21705;SDS011;11014;53.076;18.208;2023-11-22T00:35:12;16.73;;;8.70;;
21705;SDS011;11014;53.076;18.208;2023-11-22T00:37:42;18.95;;;9.32;;
21705;SDS011;11014;53.076;18.208;2023-11-22T00:40:11;20.30;;;8.77;;
21705;SDS011;11014;53.076;18.208;2023-11-22T00:42:40;19.58;;;8.75;;
21705;SDS011;11014;53.076;18.208;2023-11-22T00:45:12;19.77;;;9.20;;
21705;SDS011;11014;53.076;18.208;2023-11-22T00:47:41;18.10;;;8.68;;
21705;SDS011;11014;53.076;18.208;2023-11-22T00:50:10;18.85;;;8.57;;
21705;SDS011;11014;53.076;18.208;2023-11-22T00:52:40;19.45;;;9.32;;
21705;SDS011;11014;53.076;18.208;2023-11-22T00:55:13;15.93;;;8.35;;
21705;SDS011;11014;53.076;18.208;2023-11-22T00:57:42;17.55;;;8.82;;
21705;SDS011;11014;53.076;18.208;2023-11-22T01:00:11;14.88;;;8.48;;
21705;SDS011;11014;53.076;18.208;2023-11-22T01:02:42;18.77;;;9.23;;
21705;SDS011;11014;53.076;18.208;2023-11-22T01:05:11;18.70;;;9.20;;
21705;SDS011;11014;53.076;18.208;2023-11-22T01:07:40;16.02;;;8.18;;
21705;SDS011;11014;53.076;18.208;2023-11-22T01:10:09;14.77;;;8.98;;
21705;SDS011;11014;53.076;18.208;2023-11-22T01:12:38;19.33;;;8.77;;
21705;SDS011;11014;53.076;18.208;2023-11-22T01:15:08;17.42;;;8.55;;
21705;SDS011;11014;53.076;18.208;2023-11-22T01:17:37;21.58;;;8.50;;
21705;SDS011;11014;53.076;18.208;2023-11-22T01:20:06;18.88;;;8.70;;
21705;SDS011;11014;53.076;18.208;2023-11-22T01:22:39;17.45;;;8.88;;
21705;SDS011;11014;53.076;18.208;2023-11-22T01:25:08;16.13;;;8.13;;
21705;SDS011;11014;53.076;18.208;2023-11-22T01:27:37;17.65;;;8.95;;
21705;SDS011;11014;53.076;18.208;2023-11-22T01:30:05;23.50;;;10.80;;
21705;SDS011;11014;53.076;18.208;2023-11-22T01:32:37;15.07;;;8.02;;
21705;SDS011;11014;53.076;18.208;2023-11-22T01:35:07;24.42;;;11.07;;
21705;SDS011;11014;53.076;18.208;2023-11-22T01:37:36;22.15;;;11.50;;
21705;SDS011;11014;53.076;18.208;2023-11-22T01:40:05;18.08;;;9.68;;
21705;SDS011;11014;53.076;18.208;2023-11-22T01:42:37;19.75;;;9.27;;
21705;SDS011;11014;53.076;18.208;2023-11-22T01:45:08;19.57;;;9.07;;
21705;SDS011;11014;53.076;18.208;2023-11-22T01:47:38;17.45;;;8.85;;
21705;SDS011;11014;53.076;18.208;2023-11-22T01:50:08;18.15;;;9.80;;
21705;SDS011;11014;53.076;18.208;2023-11-22T01:52:38;16.73;;;8.63;;
21705;SDS011;11014;53.076;18.208;2023-11-22T01:55:08;20.70;;;9.85;;
21705;SDS011;11014;53.076;18.208;2023-11-22T01:57:38;16.88;;;9.50;;
21705;SDS011;11014;53.076;18.208;2023-11-22T02:00:07;22.85;;;9.93;;
21705;SDS011;11014;53.076;18.208;2023-11-22T02:02:42;18.83;;;10.18;;
21705;SDS011;11014;53.076;18.208;2023-11-22T02:05:11;17.83;;;9.25;;
21705;SDS011;11014;53.076;18.208;2023-11-22T02:07:40;21.20;;;9.60;;
21705;SDS011;11014;53.076;18.208;2023-11-22T02:10:10;21.30;;;9.85;;
21705;SDS011;11014;53.076;18.208;2023-11-22T02:12:40;16.40;;;8.90;;
21705;SDS011;11014;53.076;18.208;2023-11-22T02:15:09;20.33;;;9.27;;
21705;SDS011;11014;53.076;18.208;2023-11-22T02:17:38;23.38;;;9.68;;
21705;SDS011;11014;53.076;18.208;2023-11-22T02:20:07;20.05;;;9.98;;
21705;SDS011;11014;53.076;18.208;2023-11-22T02:22:43;20.48;;;9.77;;
21705;SDS011;11014;53.076;18.208;2023-11-22T02:25:12;21.38;;;9.40;;
21705;SDS011;11014;53.076;18.208;2023-11-22T02:27:41;19.30;;;9.18;;
21705;SDS011;11014;53.076;18.208;2023-11-22T02:30:11;22.75;;;9.20;;
21705;SDS011;11014;53.076;18.208;2023-11-22T02:32:40;18.48;;;9.05;;
21705;SDS011;11014;53.076;18.208;2023-11-22T02:35:08;19.98;;;9.30;;
21705;SDS011;11014;53.076;18.208;2023-11-22T02:37:37;22.17;;;9.45;;
21705;SDS011;11014;53.076;18.208;2023-11-22T02:40:11;20.83;;;9.35;;
21705;SDS011;11014;53.076;18.208;2023-11-22T02:42:48;20.90;;;9.38;;
21705;SDS011;11014;53.076;18.208;2023-11-22T02:45:28;20.40;;;9.02;;
21705;SDS011;11014;53.076;18.208;2023-11-22T02:47:57;23.67;;;9.95;;
21705;SDS011;11014;53.076;18.208;2023-11-22T02:50:27;21.83;;;9.88;;
21705;SDS011;11014;53.076;18.208;2023-11-22T02:52:56;21.13;;;9.75;;
21705;SDS011;11014;53.076;18.208;2023-11-22T02:55:24;22.60;;;10.13;;
21705;SDS011;11014;53.076;18.208;2023-11-22T02:57:53;21.63;;;10.68;;
21705;SDS011;11014;53.076;18.208;2023-11-22T03:00:21;22.02;;;10.65;;
21705;SDS011;11014;53.076;18.208;2023-11-22T03:02:50;24.13;;;10.07;;
21705;SDS011;11014;53.076;18.208;2023-11-22T03:07:52;20.08;;;8.45;;
21705;SDS011;11014;53.076;18.208;2023-11-22T03:10:21;23.42;;;9.90;;
21705;SDS011;11014;53.076;18.208;2023-11-22T03:12:49;24.50;;;9.20;;
21705;SDS011;11014;53.076;18.208;2023-11-22T03:15:18;23.70;;;10.05;;
21705;SDS011;11014;53.076;18.208;2023-11-22T03:17:46;21.70;;;9.73;;
21705;SDS011;11014;53.076;18.208;2023-11-22T03:20:16;21.98;;;9.88;;
21705;SDS011;11014;53.076;18.208;2023-11-22T03:22:45;20.10;;;9.75;;
21705;SDS011;11014;53.076;18.208;2023-11-22T03:25:13;20.27;;;10.18;;
21705;SDS011;11014;53.076;18.208;2023-11-22T03:27:42;20.63;;;10.15;;
21705;SDS011;11014;53.076;18.208;2023-11-22T03:30:13;20.65;;;9.95;;
21705;SDS011;11014;53.076;18.208;2023-11-22T03:32:43;23.58;;;10.30;;
21705;SDS011;11014;53.076;18.208;2023-11-22T03:35:12;19.52;;;9.82;;
21705;SDS011;11014;53.076;18.208;2023-11-22T03:37:41;26.42;;;9.90;;
21705;SDS011;11014;53.076;18.208;2023-11-22T03:40:10;28.20;;;11.40;;
21705;SDS011;11014;53.076;18.208;2023-11-22T03:42:39;25.20;;;10.35;;
21705;SDS011;11014;53.076;18.208;2023-11-22T03:45:09;25.90;;;12.10;;
21705;SDS011;11014;53.076;18.208;2023-11-22T03:47:38;25.13;;;10.13;;
21705;SDS011;11014;53.076;18.208;2023-11-22T03:50:07;22.80;;;10.13;;
21705;SDS011;11014;53.076;18.208;2023-11-22T03:52:36;25.38;;;10.48;;
21705;SDS011;11014;53.076;18.208;2023-11-22T03:55:04;25.52;;;11.30;;
21705;SDS011;11014;53.076;18.208;2023-11-22T03:57:35;23.93;;;10.13;;
21705;SDS011;11014;53.076;18.208;2023-11-22T04:00:04;22.15;;;10.65;;
21705;SDS011;11014;53.076;18.208;2023-11-22T04:02:39;25.63;;;11.32;;
21705;SDS011;11014;53.076;18.208;2023-11-22T04:05:10;23.80;;;11.05;;
21705;SDS011;11014;53.076;18.208;2023-11-22T04:07:41;27.20;;;11.38;;
21705;SDS011;11014;53.076;18.208;2023-11-22T04:10:10;22.52;;;10.02;;
21705;SDS011;11014;53.076;18.208;2023-11-22T04:12:39;23.85;;;11.30;;
21705;SDS011;11014;53.076;18.208;2023-11-22T04:15:07;25.90;;;11.38;;
21705;SDS011;11014;53.076;18.208;2023-11-22T04:17:40;23.65;;;11.05;;
21705;SDS011;11014;53.076;18.208;2023-11-22T04:20:10;27.00;;;12.43;;
21705;SDS011;11014;53.076;18.208;2023-11-22T04:22:41;37.03;;;15.43;;
21705;SDS011;11014;53.076;18.208;2023-11-22T04:25:13;39.95;;;15.73;;
21705;SDS011;11014;53.076;18.208;2023-11-22T04:27:42;34.17;;;14.52;;
21705;SDS011;11014;53.076;18.208;2023-11-22T04:30:10;34.38;;;14.75;;
21705;SDS011;11014;53.076;18.208;2023-11-22T04:32:43;31.85;;;13.63;;
21705;SDS011;11014;53.076;18.208;2023-11-22T04:35:12;34.33;;;15.38;;
21705;SDS011;11014;53.076;18.208;2023-11-22T04:37:41;35.63;;;14.63;;
21705;SDS011;11014;53.076;18.208;2023-11-22T04:40:11;37.33;;;15.82;;
21705;SDS011;11014;53.076;18.208;2023-11-22T04:42:40;34.08;;;15.25;;
21705;SDS011;11014;53.076;18.208;2023-11-22T04:45:08;34.70;;;14.15;;
21705;SDS011;11014;53.076;18.208;2023-11-22T04:47:38;28.80;;;12.20;;
21705;SDS011;11014;53.076;18.208;2023-11-22T04:50:08;25.35;;;11.13;;
21705;SDS011;11014;53.076;18.208;2023-11-22T04:52:38;26.55;;;11.90;;
21705;SDS011;11014;53.076;18.208;2023-11-22T04:55:15;25.30;;;11.23;;
21705;SDS011;11014;53.076;18.208;2023-11-22T04:57:45;22.05;;;10.88;;
21705;SDS011;11014;53.076;18.208;2023-11-22T05:00:15;28.13;;;12.32;;
21705;SDS011;11014;53.076;18.208;2023-11-22T05:02:45;26.20;;;11.82;;
21705;SDS011;11014;53.076;18.208;2023-11-22T05:05:14;27.65;;;11.55;;
21705;SDS011;11014;53.076;18.208;2023-11-22T05:10:15;26.98;;;11.32;;
21705;SDS011;11014;53.076;18.208;2023-11-22T05:12:45;35.50;;;15.68;;
21705;SDS011;11014;53.076;18.208;2023-11-22T05:15:14;42.85;;;18.73;;
21705;SDS011;11014;53.076;18.208;2023-11-22T05:17:43;49.70;;;20.58;;
21705;SDS011;11014;53.076;18.208;2023-11-22T05:20:11;28.48;;;14.57;;
21705;SDS011;11014;53.076;18.208;2023-11-22T05:22:40;33.40;;;15.45;;
21705;SDS011;11014;53.076;18.208;2023-11-22T05:25:09;39.90;;;15.32;;
21705;SDS011;11014;53.076;18.208;2023-11-22T05:27:38;32.72;;;14.88;;
21705;SDS011;11014;53.076;18.208;2023-11-22T05:30:06;34.70;;;16.92;;
21705;SDS011;11014;53.076;18.208;2023-11-22T05:32:36;37.13;;;16.05;;
21705;SDS011;11014;53.076;18.208;2023-11-22T05:35:04;37.22;;;16.35;;
21705;SDS011;11014;53.076;18.208;2023-11-22T05:37:38;36.67;;;14.90;;
21705;SDS011;11014;53.076;18.208;2023-11-22T05:40:06;36.00;;;15.52;;
21705;SDS011;11014;53.076;18.208;2023-11-22T05:42:38;37.80;;;16.75;;
21705;SDS011;11014;53.076;18.208;2023-11-22T05:45:07;41.90;;;16.88;;
21705;SDS011;11014;53.076;18.208;2023-11-22T05:47:37;38.53;;;17.55;;
21705;SDS011;11014;53.076;18.208;2023-11-22T05:50:06;42.03;;;18.77;;
21705;SDS011;11014;53.076;18.208;2023-11-22T05:52:36;44.97;;;18.38;;
21705;SDS011;11014;53.076;18.208;2023-11-22T05:55:04;41.50;;;17.42;;
21705;SDS011;11014;53.076;18.208;2023-11-22T05:57:33;42.25;;;17.83;;
21705;SDS011;11014;53.076;18.208;2023-11-22T06:00:02;46.95;;;18.92;;
21705;SDS011;11014;53.076;18.208;2023-11-22T06:02:31;42.40;;;17.60;;
21705;SDS011;11014;53.076;18.208;2023-11-22T06:05:00;48.78;;;19.45;;
21705;SDS011;11014;53.076;18.208;2023-11-22T06:07:29;42.15;;;17.77;;
21705;SDS011;11014;53.076;18.208;2023-11-22T06:09:57;39.63;;;16.25;;
21705;SDS011;11014;53.076;18.208;2023-11-22T06:12:26;37.50;;;16.33;;
21705;SDS011;11014;53.076;18.208;2023-11-22T06:14:55;38.30;;;16.85;;
21705;SDS011;11014;53.076;18.208;2023-11-22T06:17:23;38.30;;;18.05;;
21705;SDS011;11014;53.076;18.208;2023-11-22T06:19:52;38.10;;;17.45;;
21705;SDS011;11014;53.076;18.208;2023-11-22T06:22:20;44.45;;;18.83;;
21705;SDS011;11014;53.076;18.208;2023-11-22T06:24:49;44.38;;;19.95;;
21705;SDS011;11014;53.076;18.208;2023-11-22T06:27:18;29.23;;;13.82;;
21705;SDS011;11014;53.076;18.208;2023-11-22T06:29:46;30.55;;;13.35;;
21705;SDS011;11014;53.076;18.208;2023-11-22T06:32:15;36.70;;;13.43;;
21705;SDS011;11014;53.076;18.208;2023-11-22T06:34:43;29.65;;;15.98;;
21705;SDS011;11014;53.076;18.208;2023-11-22T06:37:12;37.45;;;16.55;;
21705;SDS011;11014;53.076;18.208;2023-11-22T06:39:40;75.47;;;32.58;;
21705;SDS011;11014;53.076;18.208;2023-11-22T06:42:11;69.82;;;31.08;;
21705;SDS011;11014;53.076;18.208;2023-11-22T06:44:41;66.63;;;29.42;;
21705;SDS011;11014;53.076;18.208;2023-11-22T06:47:10;39.05;;;20.27;;
21705;SDS011;11014;53.076;18.208;2023-11-22T06:49:39;33.22;;;16.95;;
21705;SDS011;11014;53.076;18.208;2023-11-22T06:52:07;33.90;;;17.27;;
21705;SDS011;11014;53.076;18.208;2023-11-22T06:54:36;40.10;;;18.00;;
21705;SDS011;11014;53.076;18.208;2023-11-22T06:57:05;36.75;;;16.45;;
21705;SDS011;11014;53.076;18.208;2023-11-22T06:59:34;30.08;;;14.13;;
21705;SDS011;11014;53.076;18.208;2023-11-22T07:02:02;29.70;;;14.10;;
21705;SDS011;11014;53.076;18.208;2023-11-22T07:04:31;30.02;;;14.07;;
21705;SDS011;11014;53.076;18.208;2023-11-22T07:07:00;27.27;;;13.43;;
21705;SDS011;11014;53.076;18.208;2023-11-22T07:09:30;32.58;;;13.63;;
21705;SDS011;11014;53.076;18.208;2023-11-22T07:11:58;27.13;;;13.02;;
21705;SDS011;11014;53.076;18.208;2023-11-22T07:14:27;35.15;;;16.08;;
21705;SDS011;11014;53.076;18.208;2023-11-22T07:16:57;47.20;;;20.00;;
21705;SDS011;11014;53.076;18.208;2023-11-22T07:19:26;47.45;;;25.55;;
21705;SDS011;11014;53.076;18.208;2023-11-22T07:21:54;38.78;;;20.67;;
21705;SDS011;11014;53.076;18.208;2023-11-22T07:24:23;41.05;;;20.20;;
21705;SDS011;11014;53.076;18.208;2023-11-22T07:26:52;34.90;;;18.13;;
21705;SDS011;11014;53.076;18.208;2023-11-22T07:29:21;32.97;;;16.63;;
21705;SDS011;11014;53.076;18.208;2023-11-22T07:31:51;29.27;;;15.38;;
21705;SDS011;11014;53.076;18.208;2023-11-22T07:34:20;33.88;;;15.90;;
21705;SDS011;11014;53.076;18.208;2023-11-22T07:36:48;28.52;;;14.52;;
21705;SDS011;11014;53.076;18.208;2023-11-22T07:39:20;31.83;;;14.38;;
21705;SDS011;11014;53.076;18.208;2023-11-22T07:41:49;32.80;;;15.27;;
21705;SDS011;11014;53.076;18.208;2023-11-22T07:44:19;40.88;;;16.60;;
21705;SDS011;11014;53.076;18.208;2023-11-22T07:46:48;36.15;;;17.50;;
21705;SDS011;11014;53.076;18.208;2023-11-22T07:49:16;39.10;;;18.48;;
21705;SDS011;11014;53.076;18.208;2023-11-22T07:51:46;37.70;;;19.40;;
21705;SDS011;11014;53.076;18.208;2023-11-22T07:54:14;56.33;;;26.17;;
21705;SDS011;11014;53.076;18.208;2023-11-22T07:56:44;65.90;;;28.17;;
21705;SDS011;11014;53.076;18.208;2023-11-22T07:59:12;46.28;;;21.20;;
21705;SDS011;11014;53.076;18.208;2023-11-22T08:01:45;43.63;;;18.90;;
21705;SDS011;11014;53.076;18.208;2023-11-22T08:04:16;42.38;;;18.52;;
21705;SDS011;11014;53.076;18.208;2023-11-22T08:06:47;47.70;;;20.50;;
21705;SDS011;11014;53.076;18.208;2023-11-22T08:09:15;36.15;;;17.77;;
21705;SDS011;11014;53.076;18.208;2023-11-22T08:11:44;37.90;;;17.77;;
21705;SDS011;11014;53.076;18.208;2023-11-22T08:14:13;36.28;;;17.73;;
21705;SDS011;11014;53.076;18.208;2023-11-22T08:16:42;39.50;;;18.63;;
21705;SDS011;11014;53.076;18.208;2023-11-22T08:19:11;41.20;;;19.10;;
21705;SDS011;11014;53.076;18.208;2023-11-22T08:21:40;38.42;;;17.85;;
21705;SDS011;11014;53.076;18.208;2023-11-22T08:24:10;36.80;;;17.65;;
21705;SDS011;11014;53.076;18.208;2023-11-22T08:26:41;36.83;;;17.67;;
21705;SDS011;11014;53.076;18.208;2023-11-22T08:29:09;39.08;;;17.58;;
21705;SDS011;11014;53.076;18.208;2023-11-22T08:31:40;38.40;;;17.17;;
21705;SDS011;11014;53.076;18.208;2023-11-22T08:34:08;41.05;;;18.75;;
21705;SDS011;11014;53.076;18.208;2023-11-22T08:36:39;35.33;;;16.95;;
21705;SDS011;11014;53.076;18.208;2023-11-22T08:39:08;37.72;;;17.08;;
21705;SDS011;11014;53.076;18.208;2023-11-22T08:41:36;33.65;;;16.15;;
21705;SDS011;11014;53.076;18.208;2023-11-22T08:44:06;35.90;;;17.75;;
21705;SDS011;11014;53.076;18.208;2023-11-22T08:46:35;34.72;;;17.17;;
21705;SDS011;11014;53.076;18.208;2023-11-22T08:49:03;36.38;;;17.13;;
21705;SDS011;11014;53.076;18.208;2023-11-22T08:51:32;35.08;;;17.63;;
21705;SDS011;11014;53.076;18.208;2023-11-22T08:54:01;37.50;;;17.35;;
21705;SDS011;11014;53.076;18.208;2023-11-22T08:56:31;34.70;;;16.60;;
21705;SDS011;11014;53.076;18.208;2023-11-22T08:58:59;34.75;;;16.95;;
21705;SDS011;11014;53.076;18.208;2023-11-22T09:01:28;30.13;;;14.43;;
21705;SDS011;11014;53.076;18.208;2023-11-22T09:03:57;29.35;;;13.90;;
21705;SDS011;11014;53.076;18.208;2023-11-22T09:06:26;25.95;;;12.63;;
21705;SDS011;11014;53.076;18.208;2023-11-22T09:08:58;28.08;;;13.95;;
21705;SDS011;11014;53.076;18.208;2023-11-22T09:11:36;28.95;;;13.65;;
21705;SDS011;11014;53.076;18.208;2023-11-22T09:14:05;32.63;;;16.08;;
21705;SDS011;11014;53.076;18.208;2023-11-22T09:16:37;27.27;;;14.27;;
21705;SDS011;11014;53.076;18.208;2023-11-22T09:19:07;21.55;;;11.95;;
21705;SDS011;11014;53.076;18.208;2023-11-22T09:21:36;23.90;;;11.18;;
21705;SDS011;11014;53.076;18.208;2023-11-22T09:24:04;23.20;;;12.43;;
21705;SDS011;11014;53.076;18.208;2023-11-22T09:26:34;22.60;;;12.48;;
21705;SDS011;11014;53.076;18.208;2023-11-22T09:29:03;23.77;;;11.50;;
21705;SDS011;11014;53.076;18.208;2023-11-22T09:31:34;23.33;;;12.43;;
21705;SDS011;11014;53.076;18.208;2023-11-22T09:34:03;22.48;;;12.43;;
21705;SDS011;11014;53.076;18.208;2023-11-22T09:36:32;24.40;;;12.48;;
21705;SDS011;11014;53.076;18.208;2023-11-22T09:39:01;23.52;;;11.85;;
21705;SDS011;11014;53.076;18.208;2023-11-22T09:41:31;20.70;;;10.10;;
21705;SDS011;11014;53.076;18.208;2023-11-22T09:43:59;21.10;;;10.57;;
21705;SDS011;11014;53.076;18.208;2023-11-22T09:46:28;18.67;;;9.68;;
21705;SDS011;11014;53.076;18.208;2023-11-22T09:51:54;17.50;;;9.00;;
21705;SDS011;11014;53.076;18.208;2023-11-22T09:54:23;18.10;;;9.90;;
21705;SDS011;11014;53.076;18.208;2023-11-22T09:57:17;22.42;;;9.68;;
21705;SDS011;11014;53.076;18.208;2023-11-22T09:59:47;17.50;;;9.18;;
21705;SDS011;11014;53.076;18.208;2023-11-22T10:02:25;17.70;;;10.15;;
21705;SDS011;11014;53.076;18.208;2023-11-22T10:08:17;21.70;;;10.18;;
21705;SDS011;11014;53.076;18.208;2023-11-22T10:14:31;15.63;;;9.90;;
21705;SDS011;11014;53.076;18.208;2023-11-22T10:17:01;18.75;;;10.25;;
21705;SDS011;11014;53.076;18.208;2023-11-22T10:19:31;15.77;;;9.52;;
21705;SDS011;11014;53.076;18.208;2023-11-22T10:22:05;18.17;;;9.20;;
21705;SDS011;11014;53.076;18.208;2023-11-22T10:24:35;16.15;;;9.32;;
21705;SDS011;11014;53.076;18.208;2023-11-22T10:27:04;14.43;;;8.65;;
21705;SDS011;11014;53.076;18.208;2023-11-22T10:29:34;15.63;;;9.20;;
21705;SDS011;11014;53.076;18.208;2023-11-22T10:32:04;16.58;;;9.60;;
21705;SDS011;11014;53.076;18.208;2023-11-22T10:34:51;17.40;;;9.02;;
21705;SDS011;11014;53.076;18.208;2023-11-22T10:40:15;18.83;;;9.55;;
21705;SDS011;11014;53.076;18.208;2023-11-22T10:42:46;17.70;;;8.98;;
21705;SDS011;11014;53.076;18.208;2023-11-22T10:45:17;18.88;;;10.50;;
21705;SDS011;11014;53.076;18.208;2023-11-22T10:47:46;23.35;;;11.80;;
21705;SDS011;11014;53.076;18.208;2023-11-22T10:50:15;17.88;;;10.00;;
21705;SDS011;11014;53.076;18.208;2023-11-22T10:52:43;18.20;;;10.02;;
21705;SDS011;11014;53.076;18.208;2023-11-22T10:55:37;26.83;;;14.10;;
21705;SDS011;11014;53.076;18.208;2023-11-22T10:58:15;19.33;;;10.23;;
21705;SDS011;11014;53.076;18.208;2023-11-22T11:00:46;19.05;;;11.25;;
21705;SDS011;11014;53.076;18.208;2023-11-22T11:03:18;29.67;;;16.83;;
21705;SDS011;11014;53.076;18.208;2023-11-22T11:06:10;24.10;;;12.60;;
21705;SDS011;11014;53.076;18.208;2023-11-22T11:08:41;24.10;;;11.57;;
21705;SDS011;11014;53.076;18.208;2023-11-22T11:11:12;26.17;;;14.00;;
21705;SDS011;11014;53.076;18.208;2023-11-22T11:13:43;25.25;;;13.57;;
21705;SDS011;11014;53.076;18.208;2023-11-22T11:16:12;38.33;;;18.25;;
21705;SDS011;11014;53.076;18.208;2023-11-22T11:18:40;28.10;;;14.77;;
21705;SDS011;11014;53.076;18.208;2023-11-22T11:21:09;32.35;;;15.68;;
21705;SDS011;11014;53.076;18.208;2023-11-22T11:23:41;25.75;;;13.98;;
21705;SDS011;11014;53.076;18.208;2023-11-22T11:26:16;22.95;;;13.25;;
21705;SDS011;11014;53.076;18.208;2023-11-22T11:28:50;26.33;;;13.43;;
21705;SDS011;11014;53.076;18.208;2023-11-22T11:33:54;26.08;;;11.32;;
21705;SDS011;11014;53.076;18.208;2023-11-22T11:36:31;25.92;;;11.82;;
21705;SDS011;11014;53.076;18.208;2023-11-22T11:39:01;26.88;;;13.32;;
21705;SDS011;11014;53.076;18.208;2023-11-22T11:41:32;22.83;;;13.07;;
21705;SDS011;11014;53.076;18.208;2023-11-22T11:44:01;17.25;;;9.15;;
21705;SDS011;11014;53.076;18.208;2023-11-22T11:46:34;16.05;;;9.23;;
21705;SDS011;11014;53.076;18.208;2023-11-22T11:49:09;19.35;;;9.35;;
21705;SDS011;11014;53.076;18.208;2023-11-22T11:51:42;15.45;;;8.95;;
21705;SDS011;11014;53.076;18.208;2023-11-22T11:54:12;27.17;;;14.75;;
21705;SDS011;11014;53.076;18.208;2023-11-22T11:56:45;25.67;;;13.95;;
21705;SDS011;11014;53.076;18.208;2023-11-22T11:59:14;23.52;;;14.15;;
21705;SDS011;11014;53.076;18.208;2023-11-22T12:01:43;15.48;;;8.82;;
21705;SDS011;11014;53.076;18.208;2023-11-22T12:04:11;17.65;;;9.45;;
21705;SDS011;11014;53.076;18.208;2023-11-22T12:06:40;23.15;;;8.57;;
21705;SDS011;11014;53.076;18.208;2023-11-22T12:09:09;18.55;;;10.60;;
21705;SDS011;11014;53.076;18.208;2023-11-22T12:11:37;15.88;;;9.63;;
21705;SDS011;11014;53.076;18.208;2023-11-22T12:14:07;16.27;;;9.05;;
21705;SDS011;11014;53.076;18.208;2023-11-22T12:16:37;18.00;;;10.95;;
21705;SDS011;11014;53.076;18.208;2023-11-22T12:19:06;19.40;;;11.63;;
21705;SDS011;11014;53.076;18.208;2023-11-22T12:21:35;16.83;;;9.48;;
21705;SDS011;11014;53.076;18.208;2023-11-22T12:24:03;14.05;;;9.43;;
21705;SDS011;11014;53.076;18.208;2023-11-22T12:26:34;13.82;;;9.02;;
21705;SDS011;11014;53.076;18.208;2023-11-22T12:29:03;16.17;;;9.43;;
21705;SDS011;11014;53.076;18.208;2023-11-22T12:31:43;17.83;;;10.60;;
21705;SDS011;11014;53.076;18.208;2023-11-22T12:34:17;18.83;;;12.02;;
21705;SDS011;11014;53.076;18.208;2023-11-22T12:39:15;16.48;;;10.13;;
21705;SDS011;11014;53.076;18.208;2023-11-22T12:41:47;18.85;;;10.18;;
21705;SDS011;11014;53.076;18.208;2023-11-22T12:44:46;20.98;;;10.88;;
21705;SDS011;11014;53.076;18.208;2023-11-22T12:47:30;18.15;;;10.65;;
21705;SDS011;11014;53.076;18.208;2023-11-22T12:50:06;19.52;;;10.70;;
21705;SDS011;11014;53.076;18.208;2023-11-22T12:52:38;17.60;;;10.32;;
21705;SDS011;11014;53.076;18.208;2023-11-22T12:55:07;16.70;;;9.80;;
21705;SDS011;11014;53.076;18.208;2023-11-22T12:57:36;16.20;;;9.80;;
21705;SDS011;11014;53.076;18.208;2023-11-22T13:00:06;22.90;;;11.13;;
21705;SDS011;11014;53.076;18.208;2023-11-22T13:02:35;23.65;;;11.32;;
21705;SDS011;11014;53.076;18.208;2023-11-22T13:05:17;23.55;;;11.07;;
21705;SDS011;11014;53.076;18.208;2023-11-22T13:07:48;18.67;;;11.15;;
21705;SDS011;11014;53.076;18.208;2023-11-22T13:10:18;16.17;;;10.07;;
21705;SDS011;11014;53.076;18.208;2023-11-22T13:12:47;20.45;;;11.32;;
21705;SDS011;11014;53.076;18.208;2023-11-22T13:15:15;17.70;;;10.65;;
21705;SDS011;11014;53.076;18.208;2023-11-22T13:17:45;19.20;;;10.52;;
21705;SDS011;11014;53.076;18.208;2023-11-22T13:20:13;19.40;;;11.27;;
21705;SDS011;11014;53.076;18.208;2023-11-22T13:22:42;24.40;;;11.90;;
21705;SDS011;11014;53.076;18.208;2023-11-22T13:25:10;18.17;;;10.70;;
21705;SDS011;11014;53.076;18.208;2023-11-22T13:27:39;17.58;;;9.90;;
21705;SDS011;11014;53.076;18.208;2023-11-22T13:30:08;17.63;;;10.73;;
21705;SDS011;11014;53.076;18.208;2023-11-22T13:32:37;19.45;;;12.15;;
21705;SDS011;11014;53.076;18.208;2023-11-22T13:35:13;17.52;;;10.90;;
21705;SDS011;11014;53.076;18.208;2023-11-22T13:37:46;15.65;;;10.10;;
21705;SDS011;11014;53.076;18.208;2023-11-22T13:40:16;17.42;;;9.45;;
21705;SDS011;11014;53.076;18.208;2023-11-22T13:42:50;18.13;;;9.68;;
21705;SDS011;11014;53.076;18.208;2023-11-22T13:45:22;15.23;;;9.38;;
21705;SDS011;11014;53.076;18.208;2023-11-22T13:47:52;15.65;;;8.82;;
21705;SDS011;11014;53.076;18.208;2023-11-22T13:50:52;20.70;;;12.43;;
21705;SDS011;11014;53.076;18.208;2023-11-22T13:53:21;20.13;;;11.32;;
21705;SDS011;11014;53.076;18.208;2023-11-22T13:55:50;18.83;;;10.40;;
21705;SDS011;11014;53.076;18.208;2023-11-22T13:58:20;15.65;;;9.73;;
21705;SDS011;11014;53.076;18.208;2023-11-22T14:00:49;15.55;;;9.35;;
21705;SDS011;11014;53.076;18.208;2023-11-22T14:03:21;16.60;;;10.30;;
21705;SDS011;11014;53.076;18.208;2023-11-22T14:05:50;17.95;;;10.98;;
21705;SDS011;11014;53.076;18.208;2023-11-22T14:08:19;20.70;;;11.50;;
21705;SDS011;11014;53.076;18.208;2023-11-22T14:10:48;23.65;;;12.57;;
21705;SDS011;11014;53.076;18.208;2023-11-22T14:13:17;21.70;;;12.32;;
21705;SDS011;11014;53.076;18.208;2023-11-22T14:15:46;26.65;;;14.20;;
21705;SDS011;11014;53.076;18.208;2023-11-22T14:18:15;32.70;;;16.70;;
21705;SDS011;11014;53.076;18.208;2023-11-22T14:20:45;25.35;;;13.65;;
21705;SDS011;11014;53.076;18.208;2023-11-22T14:23:14;25.67;;;14.63;;
21705;SDS011;11014;53.076;18.208;2023-11-22T14:25:42;37.88;;;21.63;;
21705;SDS011;11014;53.076;18.208;2023-11-22T14:28:11;49.40;;;23.90;;
21705;SDS011;11014;53.076;18.208;2023-11-22T14:30:39;29.15;;;16.20;;
21705;SDS011;11014;53.076;18.208;2023-11-22T14:33:09;29.90;;;16.42;;
21705;SDS011;11014;53.076;18.208;2023-11-22T14:35:38;27.92;;;14.80;;
21705;SDS011;11014;53.076;18.208;2023-11-22T14:38:07;28.40;;;14.38;;
21705;SDS011;11014;53.076;18.208;2023-11-22T14:40:36;32.35;;;16.42;;
21705;SDS011;11014;53.076;18.208;2023-11-22T14:43:07;26.25;;;15.05;;
21705;SDS011;11014;53.076;18.208;2023-11-22T14:45:35;30.00;;;16.55;;
21705;SDS011;11014;53.076;18.208;2023-11-22T14:48:05;28.73;;;15.35;;
21705;SDS011;11014;53.076;18.208;2023-11-22T14:56:09;26.50;;;13.88;;
21705;SDS011;11014;53.076;18.208;2023-11-22T14:58:58;27.80;;;12.93;;